Time;durP1;ratioP1;P1;durP2;ratioP2;P2;SDS_P1;SDS_P2;PMS_P1;PMS_P2;Temp;Humidity;BMP_temperature;BMP_pressure;BME280_temperature;BME280_humidity;BME280_pressure;Samples;Min_cycle;Max_cycle;Signal;HPM_P1;HPM_P2
2023/06/04 00:00:38;;;;;;;0.60;0.60;;;8.80;99.90;;;;;;5051056;28;20060;-74
2023/06/04 00:03:04;;;;;;;0.50;0.50;;;8.90;99.90;;;;;;5067683;28;20043;-73
2023/06/04 00:05:29;;;;;;;1.38;1.33;;;8.90;99.90;;;;;;5051333;28;20040;-73
2023/06/04 00:07:55;;;;;;;0.50;0.50;;;8.90;99.90;;;;;;5070352;28;20044;-74
2023/06/04 00:10:21;;;;;;;0.52;0.52;;;9.00;99.90;;;;;;5071763;28;20052;-74
2023/06/04 00:12:46;;;;;;;0.57;0.57;;;9.00;99.90;;;;;;5071937;28;20496;-74
2023/06/04 00:15:13;;;;;;;2.45;0.52;;;8.90;99.90;;;;;;5055039;28;20106;-73
2023/06/04 00:17:41;;;;;;;0.50;0.50;;;8.90;99.90;;;;;;5071953;28;20044;-74
2023/06/04 00:20:07;;;;;;;0.50;0.50;;;8.80;99.90;;;;;;5071110;28;20083;-73
2023/06/04 00:22:32;;;;;;;0.30;0.30;;;8.80;99.90;;;;;;5071832;28;20036;-73
2023/06/04 00:24:58;;;;;;;0.50;0.50;;;8.80;99.90;;;;;;5072052;28;20464;-73
2023/06/04 00:27:24;;;;;;;0.52;0.52;;;8.70;99.90;;;;;;5075874;28;20472;-74
2023/06/04 00:29:49;;;;;;;0.40;0.40;;;8.80;99.90;;;;;;5071411;28;20044;-74
2023/06/04 00:32:15;;;;;;;0.50;0.50;;;8.60;99.90;;;;;;5071041;28;20049;-73
2023/06/04 00:34:41;;;;;;;0.50;0.50;;;8.60;99.90;;;;;;5054589;28;20363;-74
2023/06/04 00:37:06;;;;;;;0.45;0.45;;;8.50;99.90;;;;;;5054725;28;20101;-74
2023/06/04 00:39:34;;;;;;;0.40;0.40;;;8.50;99.90;;;;;;5070857;28;20041;-73
2023/06/04 00:42:00;;;;;;;0.35;0.35;;;8.50;99.90;;;;;;5039610;28;20045;-73
2023/06/04 00:44:26;;;;;;;0.50;0.50;;;8.40;99.90;;;;;;5100396;28;20128;-74
2023/06/04 00:46:53;;;;;;;0.40;0.40;;;8.40;99.90;;;;;;5054809;28;20087;-74
2023/06/04 00:49:20;;;;;;;0.47;0.47;;;8.40;99.90;;;;;;5071222;28;20454;-73
2023/06/04 00:51:45;;;;;;;0.35;0.35;;;8.40;99.90;;;;;;5070805;28;20060;-74
2023/06/04 00:54:13;;;;;;;0.52;0.52;;;8.40;99.90;;;;;;5070527;28;20412;-73
2023/06/04 00:56:39;;;;;;;0.50;0.50;;;8.20;99.90;;;;;;5070813;28;20041;-74
2023/06/04 00:59:07;;;;;;;0.60;0.60;;;8.20;99.90;;;;;;5071069;28;20049;-73
2023/06/04 01:01:48;;;;;;;0.55;0.55;;;8.20;99.90;;;;;;5070397;28;20048;-74
2023/06/04 01:04:32;;;;;;;0.40;0.40;;;8.10;99.90;;;;;;5070544;28;20047;-74
2023/06/04 01:07:02;;;;;;;0.50;0.50;;;8.10;99.90;;;;;;5071104;28;20398;-74
2023/06/04 01:09:29;;;;;;;0.40;0.40;;;8.00;99.90;;;;;;5070280;28;20036;-74
2023/06/04 01:11:58;;;;;;;0.50;0.50;;;8.00;99.90;;;;;;5070630;28;20044;-73
2023/06/04 01:14:24;;;;;;;0.50;0.50;;;7.90;99.90;;;;;;5070090;28;20045;-73
2023/06/04 01:17:03;;;;;;;0.50;0.50;;;8.00;99.90;;;;;;5070656;28;20048;-73
2023/06/04 01:19:49;;;;;;;0.50;0.50;;;7.90;99.90;;;;;;5068917;28;20041;-73
2023/06/04 01:22:37;;;;;;;0.50;0.50;;;7.90;99.90;;;;;;5077418;28;20139;-73
2023/06/04 01:25:09;;;;;;;0.50;0.50;;;7.90;99.90;;;;;;5070465;28;20127;-74
2023/06/04 01:27:36;;;;;;;0.40;0.40;;;7.80;99.90;;;;;;5069901;28;20482;-73
2023/06/04 01:30:03;;;;;;;0.45;0.45;;;7.80;99.90;;;;;;5070227;28;20064;-74
2023/06/04 01:32:29;;;;;;;0.50;0.50;;;7.70;99.90;;;;;;5070004;28;20056;-74
2023/06/04 01:34:55;;;;;;;0.50;0.50;;;7.70;99.90;;;;;;5070674;28;20111;-73
2023/06/04 01:37:21;;;;;;;0.60;0.60;;;7.70;99.90;;;;;;5070139;28;20055;-73
2023/06/04 01:39:47;;;;;;;0.52;0.52;;;7.60;99.90;;;;;;5070445;28;20044;-73
2023/06/04 01:42:13;;;;;;;0.38;0.38;;;7.60;99.90;;;;;;5040647;28;20046;-74
2023/06/04 01:44:38;;;;;;;0.40;0.40;;;7.60;99.90;;;;;;5098104;28;20072;-73
2023/06/04 01:47:04;;;;;;;0.57;0.57;;;7.50;99.90;;;;;;5053979;28;20040;-74
2023/06/04 01:49:30;;;;;;;0.40;0.40;;;7.50;99.90;;;;;;5053256;28;20060;-73
2023/06/04 01:51:56;;;;;;;0.60;0.60;;;7.50;99.90;;;;;;5072004;28;20061;-74
2023/06/04 01:54:22;;;;;;;0.50;0.50;;;7.40;99.90;;;;;;5070241;28;20059;-74
2023/06/04 01:56:48;;;;;;;0.40;0.40;;;7.40;99.90;;;;;;5069927;28;20366;-74
2023/06/04 01:59:16;;;;;;;;;;;7.50;99.90;;;;;;5053336;28;20131;-73
2023/06/04 02:01:42;;;;;;;0.50;0.50;;;7.50;99.90;;;;;;5069729;28;19931;-73
2023/06/04 02:04:07;;;;;;;0.40;0.40;;;7.40;99.90;;;;;;5070024;28;20040;-73
2023/06/04 02:06:33;;;;;;;0.40;0.40;;;7.40;99.90;;;;;;5069361;28;20040;-73
2023/06/04 02:09:00;;;;;;;0.60;0.60;;;7.40;99.90;;;;;;5069616;28;20059;-74
2023/06/04 02:11:26;;;;;;;0.40;0.40;;;7.40;99.90;;;;;;5052967;28;20127;-73
2023/06/04 02:13:51;;;;;;;0.60;0.60;;;7.30;99.90;;;;;;5052999;28;20143;-73
2023/06/04 02:16:17;;;;;;;0.60;0.60;;;7.30;99.90;;;;;;5069279;28;20040;-73
2023/06/04 02:18:43;;;;;;;0.50;0.50;;;7.30;99.90;;;;;;5075818;28;20603;-74
2023/06/04 02:21:08;;;;;;;0.50;0.50;;;7.20;99.90;;;;;;5052870;28;20041;-74
2023/06/04 02:23:34;;;;;;;0.45;0.45;;;7.40;99.90;;;;;;5052345;28;20394;-73
2023/06/04 02:26:00;;;;;;;0.50;0.50;;;7.40;99.90;;;;;;5068984;28;20132;-73
2023/06/04 02:28:26;;;;;;;0.50;0.50;;;7.40;99.90;;;;;;5068833;28;20097;-74
2023/06/04 02:30:51;;;;;;;0.50;0.50;;;7.40;99.90;;;;;;5068947;28;20048;-73
2023/06/04 02:33:17;;;;;;;0.50;0.50;;;7.40;99.90;;;;;;5068625;28;20482;-73
2023/06/04 02:35:43;;;;;;;0.70;0.70;;;7.40;99.90;;;;;;5069059;28;20127;-74
2023/06/04 02:38:08;;;;;;;0.70;0.70;;;7.40;99.90;;;;;;5069259;28;20044;-73
2023/06/04 02:40:34;;;;;;;0.40;0.40;;;7.40;99.90;;;;;;5068836;28;20541;-73
2023/06/04 02:43:00;;;;;;;0.50;0.50;;;7.50;99.90;;;;;;5079430;28;20123;-74
2023/06/04 02:45:26;;;;;;;0.70;0.63;;;7.50;99.90;;;;;;5039343;28;20036;-74
2023/06/04 02:47:52;;;;;;;0.60;0.60;;;7.60;99.90;;;;;;5068810;28;20055;-73
2023/06/04 02:50:17;;;;;;;0.50;0.50;;;7.70;99.90;;;;;;5068866;28;20114;-74
2023/06/04 02:52:44;;;;;;;0.43;0.43;;;7.60;99.90;;;;;;5068668;28;20460;-74
2023/06/04 02:55:11;;;;;;;0.98;0.98;;;7.60;99.90;;;;;;5068416;28;20048;-74
2023/06/04 02:57:40;;;;;;;0.65;0.65;;;7.60;99.90;;;;;;5068472;28;20529;-74
2023/06/04 03:00:12;;;;;;;0.50;0.50;;;7.60;99.90;;;;;;5068225;28;20044;-74
2023/06/04 03:02:48;;;;;;;0.57;0.57;;;7.50;99.90;;;;;;5068266;28;20045;-74
2023/06/04 03:05:15;;;;;;;0.55;0.55;;;7.50;99.90;;;;;;5068380;28;20040;-74
2023/06/04 03:07:43;;;;;;;0.50;0.50;;;7.50;99.90;;;;;;5068183;28;20052;-74
2023/06/04 03:10:10;;;;;;;0.50;0.50;;;7.50;99.90;;;;;;5068465;28;20036;-74
2023/06/04 03:12:36;;;;;;;0.40;0.40;;;7.50;99.90;;;;;;5068402;28;20175;-74
2023/06/04 03:15:03;;;;;;;0.50;0.50;;;7.50;99.90;;;;;;5075254;28;20044;-74
2023/06/04 03:17:28;;;;;;;0.47;0.47;;;7.60;99.90;;;;;;5068967;28;20079;-72
2023/06/04 03:19:55;;;;;;;0.77;0.77;;;7.60;99.90;;;;;;5069672;28;20086;-72
2023/06/04 03:22:21;;;;;;;0.60;0.60;;;7.60;99.90;;;;;;5070142;28;20405;-72
2023/06/04 03:24:47;;;;;;;0.50;0.50;;;7.50;99.90;;;;;;5068569;28;20113;-73
2023/06/04 03:27:13;;;;;;;0.40;0.40;;;7.60;99.90;;;;;;5068748;28;20040;-73
2023/06/04 03:29:38;;;;;;;0.60;0.60;;;7.50;99.90;;;;;;5068127;28;20052;-73
2023/06/04 03:32:05;;;;;;;0.70;0.70;;;7.50;99.90;;;;;;5068383;28;20048;-73
2023/06/04 03:34:31;;;;;;;0.50;0.50;;;7.50;99.90;;;;;;5067938;28;20048;-73
2023/06/04 03:36:57;;;;;;;;;;;7.50;99.90;;;;;;5068623;28;20041;-73
2023/06/04 03:39:23;;;;;;;0.40;0.40;;;7.50;99.90;;;;;;5068238;28;20403;-73
2023/06/04 03:41:49;;;;;;;0.50;0.50;;;7.50;99.90;;;;;;5067634;28;20125;-73
2023/06/04 03:44:15;;;;;;;;;;;7.50;99.90;;;;;;5082446;28;20090;-73
2023/06/04 03:46:42;;;;;;;0.50;0.50;;;7.60;99.90;;;;;;5068162;28;19920;-74
2023/06/04 03:49:09;;;;;;;0.50;0.50;;;7.60;99.90;;;;;;5068701;28;20439;-74
2023/06/04 03:51:36;;;;;;;0.50;0.50;;;7.60;99.90;;;;;;5067973;28;20055;-73
2023/06/04 03:54:02;;;;;;;0.50;0.50;;;7.70;99.90;;;;;;5068435;28;20056;-73
2023/06/04 03:56:28;;;;;;;0.60;0.60;;;7.70;99.90;;;;;;5068446;28;20481;-73
2023/06/04 03:58:54;;;;;;;0.50;0.50;;;7.70;99.90;;;;;;5069035;28;20048;-74
2023/06/04 04:01:19;;;;;;;;;;;7.70;99.90;;;;;;5068783;28;20047;-73
2023/06/04 04:03:48;;;;;;;0.52;0.52;;;7.80;99.90;;;;;;5068333;28;19920;-73
2023/06/04 04:06:14;;;;;;;0.32;0.32;;;7.80;99.90;;;;;;5068119;28;20097;-73
2023/06/04 04:08:42;;;;;;;0.40;0.40;;;7.90;99.90;;;;;;5067727;28;20111;-73
2023/06/04 04:11:12;;;;;;;0.60;0.60;;;7.90;99.90;;;;;;5074703;28;20139;-74
2023/06/04 04:13:37;;;;;;;0.40;0.40;;;8.00;99.90;;;;;;5067876;28;20492;-74
2023/06/04 04:16:03;;;;;;;0.70;0.70;;;8.10;99.90;;;;;;5068270;28;20029;-74
2023/06/04 04:18:33;;;;;;;0.50;0.50;;;8.10;99.90;;;;;;5067602;28;20040;-73
2023/06/04 04:20:59;;;;;;;0.55;0.55;;;8.20;99.90;;;;;;5067734;28;20486;-74
2023/06/04 04:23:25;;;;;;;0.40;0.40;;;8.20;99.90;;;;;;5051151;28;20048;-74
2023/06/04 04:25:51;;;;;;;0.50;0.50;;;8.30;99.90;;;;;;5067520;28;20476;-73
2023/06/04 04:28:17;;;;;;;0.40;0.40;;;8.30;99.90;;;;;;5067868;28;20040;-74
2023/06/04 04:30:44;;;;;;;0.50;0.50;;;8.40;99.90;;;;;;5067541;28;20045;-74
2023/06/04 04:33:10;;;;;;;0.43;0.43;;;8.40;99.90;;;;;;5067893;28;20048;-74
2023/06/04 04:35:35;;;;;;;0.43;0.43;;;8.50;99.90;;;;;;5067640;28;20045;-74
2023/06/04 04:38:03;;;;;;;0.55;0.55;;;8.50;99.90;;;;;;5067915;28;20405;-74
2023/06/04 04:40:30;;;;;;;0.45;0.45;;;8.60;99.90;;;;;;5067416;28;20084;-74
2023/06/04 04:42:56;;;;;;;0.50;0.50;;;8.60;99.90;;;;;;5077669;28;20046;-74
2023/06/04 04:45:22;;;;;;;0.60;0.60;;;8.70;99.90;;;;;;5089419;28;20517;-74
2023/06/04 04:47:47;;;;;;;2.50;2.40;;;8.80;99.90;;;;;;5067361;28;20055;-74
2023/06/04 04:50:13;;;;;;;0.52;0.52;;;9.00;99.90;;;;;;5067788;28;20060;-74
2023/06/04 04:52:39;;;;;;;0.40;0.40;;;9.10;99.90;;;;;;5067454;28;20151;-74
2023/06/04 04:55:05;;;;;;;0.40;0.40;;;9.30;99.90;;;;;;5071163;28;20045;-73
2023/06/04 04:57:31;;;;;;;;;;;9.40;99.90;;;;;;5054461;28;20497;-73
2023/06/04 04:59:56;;;;;;;0.52;0.52;;;9.60;99.90;;;;;;5070586;28;19930;-73
2023/06/04 05:02:22;;;;;;;0.40;0.40;;;9.70;99.90;;;;;;5071375;28;20579;-73
2023/06/04 05:04:48;;;;;;;0.43;0.43;;;9.90;99.90;;;;;;5070726;28;20044;-73
2023/06/04 05:07:13;;;;;;;0.43;0.43;;;10.10;99.90;;;;;;5060604;28;20044;-73
2023/06/04 05:09:40;;;;;;;0.40;0.40;;;10.20;99.90;;;;;;5070394;28;20457;-74
2023/06/04 05:12:06;;;;;;;0.30;0.30;;;10.40;99.90;;;;;;5071029;28;20079;-73
2023/06/04 05:14:32;;;;;;;;;;;10.40;99.90;;;;;;5070956;28;20051;-74
2023/06/04 05:16:58;;;;;;;0.22;0.22;;;11.00;99.90;;;;;;5071353;28;20391;-73
2023/06/04 05:19:24;;;;;;;0.57;0.57;;;10.70;99.90;;;;;;5070417;28;20091;-74
2023/06/04 05:21:50;;;;;;;0.40;0.40;;;10.80;99.90;;;;;;5054438;28;20104;-74
2023/06/04 05:24:16;;;;;;;;;;;10.90;99.90;;;;;;5071172;28;20048;-73
2023/06/04 05:26:42;;;;;;;0.40;0.40;;;11.00;99.90;;;;;;5070268;28;20292;-73
2023/06/04 05:29:08;;;;;;;;;;;11.10;99.90;;;;;;5071295;28;20405;-73
2023/06/04 05:31:34;;;;;;;0.40;0.40;;;11.20;99.90;;;;;;5053698;28;19927;-74
2023/06/04 05:34:01;;;;;;;0.25;0.25;;;11.30;99.90;;;;;;5070751;28;20469;-74
2023/06/04 05:36:29;;;;;;;0.50;0.50;;;11.40;99.90;;;;;;5070415;28;20036;-74
2023/06/04 05:38:57;;;;;;;0.40;0.40;;;11.40;99.90;;;;;;5069828;28;20048;-73
2023/06/04 05:41:29;;;;;;;0.38;0.38;;;11.50;99.90;;;;;;5070505;28;20040;-73
2023/06/04 05:43:54;;;;;;;0.38;0.38;;;11.60;99.90;;;;;;5084332;28;20434;-74
2023/06/04 05:46:21;;;;;;;0.45;0.45;;;11.70;99.90;;;;;;5053824;28;20040;-74
2023/06/04 05:48:47;;;;;;;0.30;0.30;;;11.80;99.90;;;;;;5069562;28;20032;-74
2023/06/04 05:51:15;;;;;;;0.65;0.65;;;11.90;99.90;;;;;;5053178;28;20417;-74
2023/06/04 05:53:42;;;;;;;0.45;0.45;;;12.00;99.90;;;;;;5053395;28;20067;-74
2023/06/04 05:56:07;;;;;;;;;;;12.00;99.90;;;;;;5071135;28;20044;-75
2023/06/04 05:58:36;;;;;;;0.40;0.40;;;12.10;99.90;;;;;;5070226;28;19927;-74
2023/06/04 06:01:03;;;;;;;0.40;0.40;;;12.20;99.90;;;;;;5053641;28;20044;-75
2023/06/04 06:03:28;;;;;;;;;;;12.20;99.90;;;;;;5077395;28;20551;-74
2023/06/04 06:05:55;;;;;;;0.43;0.43;;;12.30;99.90;;;;;;5069866;28;19993;-74
2023/06/04 06:08:24;;;;;;;0.30;0.30;;;12.40;99.90;;;;;;5070866;28;20047;-74
2023/06/04 06:10:50;;;;;;;0.40;0.40;;;12.50;99.90;;;;;;5069551;28;20123;-74
2023/06/04 06:13:16;;;;;;;0.47;0.38;;;12.50;99.90;;;;;;5069871;28;20221;-74
2023/06/04 06:15:42;;;;;;;0.40;0.40;;;12.60;99.90;;;;;;5069767;28;20527;-74
2023/06/04 06:18:07;;;;;;;0.30;0.30;;;12.60;99.90;;;;;;5053633;28;20041;-74
2023/06/04 06:20:33;;;;;;;0.30;0.30;;;12.70;99.90;;;;;;5053309;28;20102;-74
2023/06/04 06:23:06;;;;;;;0.43;0.43;;;12.80;99.90;;;;;;5069409;28;20474;-74
2023/06/04 06:25:32;;;;;;;0.45;0.45;;;12.90;99.90;;;;;;5069405;28;20382;-75
2023/06/04 06:27:57;;;;;;;2.50;1.15;;;13.00;99.90;;;;;;5069175;28;20054;-74
2023/06/04 06:30:23;;;;;;;0.30;0.30;;;13.10;99.90;;;;;;5053175;28;20538;-74
2023/06/04 06:32:49;;;;;;;;;;;13.20;99.90;;;;;;5069574;28;20054;-73
2023/06/04 06:35:16;;;;;;;0.40;0.40;;;13.20;99.90;;;;;;5052503;28;19970;-75
2023/06/04 06:37:43;;;;;;;0.32;0.32;;;13.30;99.90;;;;;;5068596;28;20123;-74
2023/06/04 06:40:09;;;;;;;0.32;0.32;;;13.30;99.90;;;;;;5069091;28;20040;-74
2023/06/04 06:42:35;;;;;;;0.32;0.32;;;13.40;99.90;;;;;;5076019;28;20043;-74
2023/06/04 06:45:01;;;;;;;0.20;0.20;;;13.50;99.90;;;;;;5093170;28;20044;-74
2023/06/04 06:47:26;;;;;;;0.25;0.25;;;13.70;99.90;;;;;;5052720;28;20044;-74
2023/06/04 06:49:52;;;;;;;0.20;0.20;;;13.80;99.90;;;;;;5052081;28;20051;-74
2023/06/04 06:52:19;;;;;;;;;;;13.90;99.90;;;;;;5070010;28;20118;-73
2023/06/04 06:54:46;;;;;;;0.30;0.30;;;14.10;99.90;;;;;;5068804;28;19970;-74
2023/06/04 06:57:12;;;;;;;0.30;0.30;;;14.20;99.90;;;;;;5052207;28;20048;-75
2023/06/04 06:59:37;;;;;;;0.47;0.40;;;14.40;99.90;;;;;;5075833;28;20059;-75
2023/06/04 07:02:03;;;;;;;;;;;14.50;99.90;;;;;;5069734;28;20492;-74
2023/06/04 07:04:29;;;;;;;0.30;0.30;;;14.60;99.90;;;;;;5052835;28;20381;-74
2023/06/04 07:06:55;;;;;;;0.32;0.32;;;14.70;99.90;;;;;;5068701;28;20504;-74
2023/06/04 07:09:20;;;;;;;;;;;14.70;99.90;;;;;;5069398;28;20040;-75
2023/06/04 07:11:46;;;;;;;0.28;0.28;;;14.80;99.90;;;;;;5068532;28;19979;-74
2023/06/04 07:14:12;;;;;;;0.25;0.25;;;14.90;99.90;;;;;;5052046;28;20105;-75
2023/06/04 07:16:37;;;;;;;;;;;15.10;99.90;;;;;;5052571;28;20048;-75
2023/06/04 07:19:03;;;;;;;0.32;0.32;;;15.20;99.90;;;;;;5068572;28;19943;-74
2023/06/04 07:21:29;;;;;;;0.40;0.40;;;15.20;99.90;;;;;;5068437;28;20771;-75
2023/06/04 07:23:54;;;;;;;0.20;0.20;;;15.30;99.90;;;;;;5051516;28;20047;-75
2023/06/04 07:26:20;;;;;;;0.22;0.22;;;15.40;99.90;;;;;;5068716;28;20044;-74
2023/06/04 07:28:46;;;;;;;0.20;0.20;;;15.40;99.90;;;;;;5068450;28;20089;-74
2023/06/04 07:31:16;;;;;;;0.20;0.20;;;15.40;99.90;;;;;;5052025;28;20123;-75
2023/06/04 07:33:43;;;;;;;0.20;0.20;;;15.60;99.90;;;;;;5069704;28;20028;-75
2023/06/04 07:36:15;;;;;;;0.20;0.20;;;15.60;99.90;;;;;;5068358;28;20048;-75
2023/06/04 07:38:42;;;;;;;0.20;0.20;;;15.70;99.90;;;;;;5068703;28;20087;-74
2023/06/04 07:41:08;;;;;;;0.60;0.60;;;15.70;99.90;;;;;;5068126;28;20033;-74
2023/06/04 07:43:35;;;;;;;0.30;0.30;;;15.90;99.90;;;;;;5082745;28;20063;-74
2023/06/04 07:46:01;;;;;;;0.45;0.45;;;16.00;99.90;;;;;;5068008;28;20446;-74
2023/06/04 07:48:30;;;;;;;0.30;0.30;;;16.10;99.90;;;;;;5054542;28;20398;-74
2023/06/04 07:51:00;;;;;;;0.20;0.20;;;16.10;99.90;;;;;;5067919;28;20053;-74
2023/06/04 07:53:26;;;;;;;0.20;0.20;;;16.20;99.90;;;;;;5068841;28;20037;-74
2023/06/04 07:55:52;;;;;;;0.25;0.25;;;16.20;99.90;;;;;;5074861;28;20388;-74
2023/06/04 07:58:18;;;;;;;0.32;0.32;;;16.20;99.90;;;;;;5051741;28;20040;-75
2023/06/04 08:00:44;;;;;;;;;;;16.10;99.90;;;;;;5068377;28;20135;-75
2023/06/04 08:03:10;;;;;;;0.28;0.28;;;16.10;99.90;;;;;;5067997;28;20281;-75
2023/06/04 08:05:36;;;;;;;0.20;0.20;;;16.10;99.90;;;;;;5068251;28;20041;-75
2023/06/04 08:08:03;;;;;;;0.65;0.65;;;16.30;99.90;;;;;;5068181;28;20055;-75
2023/06/04 08:10:30;;;;;;;0.30;0.30;;;16.50;99.90;;;;;;5068266;28;20060;-75
2023/06/04 08:12:56;;;;;;;0.20;0.20;;;16.60;99.90;;;;;;5068764;28;20044;-74
2023/06/04 08:15:22;;;;;;;0.30;0.30;;;16.60;99.90;;;;;;5068290;28;20083;-75
2023/06/04 08:17:47;;;;;;;;;;;16.70;99.90;;;;;;5068347;28;20076;-75
2023/06/04 08:20:13;;;;;;;0.52;0.52;;;16.70;99.90;;;;;;5067584;28;19921;-74
2023/06/04 08:22:38;;;;;;;;;;;16.80;99.90;;;;;;5051826;28;20392;-74
2023/06/04 08:25:05;;;;;;;0.60;0.60;;;16.80;99.90;;;;;;5067452;28;20407;-75
2023/06/04 08:27:31;;;;;;;0.20;0.20;;;16.80;99.90;;;;;;5051317;28;20036;-74
2023/06/04 08:29:57;;;;;;;;;;;17.00;99.90;;;;;;5072338;28;20040;-74
2023/06/04 08:32:23;;;;;;;0.20;0.20;;;17.00;99.90;;;;;;5073029;28;19920;-76
2023/06/04 08:34:49;;;;;;;0.20;0.20;;;16.90;99.90;;;;;;5055093;28;20048;-75
2023/06/04 08:37:18;;;;;;;0.40;0.40;;;16.80;99.90;;;;;;5055312;28;20132;-74
2023/06/04 08:39:44;;;;;;;0.20;0.20;;;16.90;99.90;;;;;;5071685;28;20106;-74
2023/06/04 08:42:15;;;;;;;;;;;16.90;99.90;;;;;;5074705;28;20564;-74
2023/06/04 08:44:43;;;;;;;0.20;0.20;;;16.90;99.90;;;;;;5082489;28;20366;-74
2023/06/04 08:47:13;;;;;;;0.20;0.20;;;17.00;99.90;;;;;;5071292;28;20068;-75
2023/06/04 08:49:40;;;;;;;0.43;0.43;;;17.00;99.90;;;;;;5067474;28;20045;-74
2023/06/04 08:52:06;;;;;;;0.40;0.40;;;17.10;99.90;;;;;;5078056;28;20044;-75
2023/06/04 08:54:32;;;;;;;;;;;17.10;99.90;;;;;;5055332;28;20458;-75
2023/06/04 08:57:00;;;;;;;0.20;0.20;;;17.10;99.90;;;;;;5071148;28;19991;-74
2023/06/04 08:59:27;;;;;;;0.30;0.30;;;17.10;99.90;;;;;;5071286;28;20047;-75
2023/06/04 09:01:54;;;;;;;0.20;0.20;;;17.10;99.90;;;;;;5054755;28;20051;-75
2023/06/04 09:04:20;;;;;;;0.30;0.30;;;17.10;99.90;;;;;;5071179;28;20101;-75
2023/06/04 09:06:47;;;;;;;0.30;0.30;;;17.10;99.90;;;;;;5070956;28;20037;-75
2023/06/04 09:09:15;;;;;;;0.45;0.45;;;17.20;99.90;;;;;;5070512;28;20394;-75
2023/06/04 09:11:56;;;;;;;0.30;0.30;;;17.10;99.90;;;;;;5054500;28;20116;-75
2023/06/04 09:14:23;;;;;;;0.28;0.28;;;17.00;99.90;;;;;;5071075;28;20444;-75
2023/06/04 09:16:51;;;;;;;0.30;0.30;;;17.10;99.90;;;;;;5071187;28;20135;-75
2023/06/04 09:19:18;;;;;;;0.20;0.20;;;17.40;99.90;;;;;;5070623;28;20102;-75
2023/06/04 09:21:51;;;;;;;0.43;0.43;;;17.50;99.90;;;;;;5071241;28;20036;-75
2023/06/04 09:24:18;;;;;;;0.40;0.40;;;17.60;99.90;;;;;;5070997;28;20480;-75
2023/06/04 09:26:44;;;;;;;0.40;0.40;;;17.70;99.90;;;;;;5053489;28;20121;-74
2023/06/04 09:29:10;;;;;;;0.30;0.30;;;17.70;99.90;;;;;;5050465;28;20051;-74
2023/06/04 09:31:38;;;;;;;;;;;17.80;99.90;;;;;;5051117;28;20405;-74
2023/06/04 09:34:04;;;;;;;0.20;0.20;;;17.90;99.90;;;;;;5058335;28;19916;-74
2023/06/04 09:36:30;;;;;;;;;;;17.80;99.90;;;;;;5071219;28;20048;-75
2023/06/04 09:38:55;;;;;;;0.20;0.20;;;17.80;99.90;;;;;;5053864;28;20447;-74
2023/06/04 09:41:21;;;;;;;;;;;17.60;99.90;;;;;;5069666;28;20059;-75
2023/06/04 09:43:47;;;;;;;0.25;0.25;;;17.60;99.90;;;;;;5086816;28;19920;-75
2023/06/04 09:46:14;;;;;;;0.75;0.52;;;17.50;99.90;;;;;;5090282;28;20047;-75
2023/06/04 09:48:41;;;;;;;0.30;0.30;;;17.60;99.90;;;;;;5078531;28;20040;-75
2023/06/04 09:51:12;;;;;;;0.52;0.52;;;17.70;99.90;;;;;;5069929;28;20052;-75
2023/06/04 09:53:38;;;;;;;0.28;0.28;;;17.60;99.90;;;;;;5070558;28;20428;-75
2023/06/04 09:56:10;;;;;;;0.28;0.28;;;17.70;99.90;;;;;;5070055;28;20045;-75
2023/06/04 09:58:37;;;;;;;0.30;0.30;;;17.70;99.90;;;;;;5070106;28;20045;-75
2023/06/04 10:01:05;;;;;;;0.40;0.40;;;17.80;99.90;;;;;;5069175;28;20049;-75
2023/06/04 10:03:36;;;;;;;0.20;0.20;;;18.10;99.90;;;;;;5069903;28;20044;-75
2023/06/04 10:06:05;;;;;;;0.47;0.47;;;18.20;99.90;;;;;;5069858;28;20048;-75
2023/06/04 10:08:31;;;;;;;0.20;0.20;;;18.10;99.90;;;;;;5069939;28;20515;-75
2023/06/04 10:11:01;;;;;;;0.20;0.20;;;18.10;99.90;;;;;;5070463;28;20433;-75
2023/06/04 10:13:38;;;;;;;0.20;0.20;;;18.20;99.90;;;;;;5069898;28;20614;-75
2023/06/04 10:16:07;;;;;;;0.20;0.20;;;18.20;99.90;;;;;;5069858;28;20120;-74
2023/06/04 10:18:34;;;;;;;0.28;0.28;;;18.10;99.90;;;;;;5069993;28;20044;-75
2023/06/04 10:21:00;;;;;;;0.20;0.20;;;18.10;99.90;;;;;;5052863;28;20044;-75
2023/06/04 10:23:26;;;;;;;0.20;0.20;;;18.10;99.90;;;;;;5069623;28;20036;-75
2023/06/04 10:25:53;;;;;;;0.20;0.20;;;18.20;99.90;;;;;;5058938;28;20099;-75
2023/06/04 10:28:20;;;;;;;0.20;0.20;;;18.00;99.90;;;;;;5049366;28;20113;-75
2023/06/04 10:30:50;;;;;;;0.40;0.40;;;18.00;99.90;;;;;;5049840;28;20372;-74
2023/06/04 10:33:20;;;;;;;0.50;0.30;;;18.10;99.90;;;;;;5050758;28;20139;-74
2023/06/04 10:35:46;;;;;;;0.20;0.20;;;18.00;99.90;;;;;;5070583;28;20041;-75
2023/06/04 10:38:14;;;;;;;0.63;0.63;;;18.00;99.90;;;;;;5052462;28;20113;-75
2023/06/04 10:40:40;;;;;;;0.15;0.15;;;18.10;99.90;;;;;;5069285;28;20056;-75
2023/06/04 10:43:13;;;;;;;0.30;0.30;;;18.20;99.90;;;;;;5080078;28;20496;-75
2023/06/04 10:45:40;;;;;;;0.28;0.28;;;18.30;99.90;;;;;;5060229;28;20076;-74
2023/06/04 10:48:12;;;;;;;0.28;0.28;;;18.40;99.90;;;;;;5035158;28;20047;-75
2023/06/04 10:50:53;;;;;;;0.30;0.30;;;18.50;99.90;;;;;;5068666;28;20044;-75
2023/06/04 10:53:23;;;;;;;0.20;0.20;;;18.50;99.90;;;;;;5038444;28;20036;-76
2023/06/04 10:55:49;;;;;;;0.30;0.30;;;18.40;99.90;;;;;;5070603;28;20055;-75
2023/06/04 10:58:15;;;;;;;0.20;0.20;;;18.30;99.90;;;;;;5068440;28;20055;-75
2023/06/04 11:00:43;;;;;;;0.28;0.28;;;18.30;99.90;;;;;;5052062;28;20109;-75
2023/06/04 11:03:12;;;;;;;0.50;0.50;;;18.30;99.90;;;;;;5068843;28;20525;-75
2023/06/04 11:05:40;;;;;;;0.20;0.20;;;18.30;99.90;;;;;;5068749;28;20037;-75
2023/06/04 11:08:10;;;;;;;0.30;0.30;;;18.30;99.90;;;;;;5068507;28;20127;-75
2023/06/04 11:10:54;;;;;;;0.10;0.10;;;18.30;99.90;;;;;;5069038;28;20067;-75
2023/06/04 11:13:24;;;;;;;0.20;0.20;;;18.50;99.90;;;;;;5052275;28;20051;-75
2023/06/04 11:15:50;;;;;;;0.15;0.15;;;18.50;99.90;;;;;;5048739;28;20053;-75
2023/06/04 11:18:20;;;;;;;;;;;18.60;99.90;;;;;;5033009;28;20094;-75
2023/06/04 11:20:58;;;;;;;0.30;0.30;;;18.70;99.90;;;;;;5049118;28;19977;-75
2023/06/04 11:23:23;;;;;;;0.30;0.30;;;18.90;99.90;;;;;;5048751;28;20044;-75
2023/06/04 11:25:51;;;;;;;;;;;19.00;99.90;;;;;;5059270;28;20529;-75
2023/06/04 11:28:18;;;;;;;0.20;0.20;;;19.20;99.90;;;;;;5052334;28;19939;-75
2023/06/04 11:30:44;;;;;;;0.20;0.20;;;19.30;99.60;;;;;;5068448;28;20503;-75
2023/06/04 11:33:10;;;;;;;0.10;0.10;;;19.40;99.90;;;;;;5068205;28;20154;-75
2023/06/04 11:35:43;;;;;;;0.30;0.30;;;19.40;99.90;;;;;;5068518;28;20127;-75
2023/06/04 11:38:09;;;;;;;0.22;0.22;;;19.40;99.90;;;;;;5068344;28;20393;-75
2023/06/04 11:40:35;;;;;;;0.82;0.82;;;19.50;98.30;;;;;;5075147;28;20123;-75
2023/06/04 11:43:02;;;;;;;0.45;0.30;;;19.50;99.60;;;;;;5061741;28;20197;-75
2023/06/04 11:45:30;;;;;;;0.20;0.20;;;19.40;99.90;;;;;;5071906;28;20045;-75
2023/06/04 11:47:57;;;;;;;0.30;0.30;;;19.30;99.60;;;;;;5068298;28;20047;-75
2023/06/04 11:50:26;;;;;;;0.30;0.30;;;19.40;99.90;;;;;;5067914;28;20051;-75
2023/06/04 11:52:53;;;;;;;0.30;0.30;;;19.70;99.30;;;;;;5067807;28;20068;-75
2023/06/04 11:55:22;;;;;;;0.20;0.20;;;19.90;99.00;;;;;;5067705;28;20056;-75
2023/06/04 11:57:48;;;;;;;0.13;0.13;;;19.90;98.30;;;;;;5052347;28;20044;-75
2023/06/04 12:00:15;;;;;;;0.35;0.35;;;19.80;97.10;;;;;;5050757;28;20114;-75
2023/06/04 12:02:55;;;;;;;0.65;0.35;;;19.80;98.30;;;;;;5068224;28;20460;-75
2023/06/04 12:05:28;;;;;;;0.28;0.28;;;19.50;97.20;;;;;;5071970;28;20048;-75
2023/06/04 12:08:09;;;;;;;0.20;0.20;;;19.50;98.00;;;;;;5072740;28;20588;-75
2023/06/04 12:10:42;;;;;;;0.40;0.40;;;19.40;97.90;;;;;;5073009;28;20040;-74
2023/06/04 12:13:08;;;;;;;0.20;0.20;;;19.40;98.60;;;;;;5073343;28;20040;-74
2023/06/04 12:15:34;;;;;;;0.38;0.38;;;19.30;97.40;;;;;;5072317;28;20485;-74
2023/06/04 12:18:00;;;;;;;0.30;0.30;;;19.20;97.40;;;;;;5055684;28;20055;-75
2023/06/04 12:20:32;;;;;;;;;;;19.10;97.70;;;;;;5072214;28;20448;-75
2023/06/04 12:22:58;;;;;;;0.20;0.20;;;19.20;98.20;;;;;;5072151;28;19916;-75
2023/06/04 12:25:30;;;;;;;0.52;0.52;;;19.40;97.10;;;;;;5048253;28;20043;-75
2023/06/04 12:27:56;;;;;;;0.20;0.20;;;19.50;97.00;;;;;;5051840;28;20045;-74
2023/06/04 12:30:23;;;;;;;0.40;0.40;;;19.60;97.10;;;;;;5051735;28;20440;-75
2023/06/04 12:32:50;;;;;;;0.13;0.13;;;19.60;96.90;;;;;;5035460;28;20076;-74
2023/06/04 12:35:16;;;;;;;0.47;0.47;;;19.70;97.40;;;;;;5069866;28;20087;-75
2023/06/04 12:37:42;;;;;;;0.40;0.40;;;19.90;97.40;;;;;;5061662;28;20076;-75
2023/06/04 12:40:08;;;;;;;;;;;20.20;97.30;;;;;;5072556;28;20040;-75
2023/06/04 12:42:34;;;;;;;0.52;0.52;;;20.30;96.70;;;;;;5077751;28;19963;-75
2023/06/04 12:45:00;;;;;;;;;;;20.30;95.90;;;;;;5063666;28;20098;-74
2023/06/04 12:47:25;;;;;;;0.32;0.32;;;20.40;96.90;;;;;;5071225;28;20409;-75
2023/06/04 12:49:52;;;;;;;;;;;20.90;96.80;;;;;;5069673;28;20047;-75
2023/06/04 12:52:18;;;;;;;0.75;0.73;;;21.40;94.90;;;;;;5071248;28;19924;-75
2023/06/04 12:54:44;;;;;;;0.20;0.20;;;21.50;96.60;;;;;;5071200;28;20040;-74
2023/06/04 12:57:10;;;;;;;0.30;0.30;;;21.50;96.50;;;;;;5071736;28;20036;-75